RA67502 UWKS-UWKX
Flight info
| Callsign | RA67502 |
|---|---|
| Flight time | N/A |
| Altitude | 3000 |
| Route | 5610N04744E/KOKSHMARI 5607N04743E/PASAD 5552N04727E/CIVILSK 5558N04646E/MORGAUSHI 5602N04718E/KUGESI |
| Aircraft | C172/L-SDGY/S |
Departure
| Time | 2026-04-28 18:08 |
|---|---|
| Airport | Cheboksary Airport (UWKS) |
Arrival
| Time | N/A |
|---|---|
| Airport | UWKX |
| Time | Latitude | Longitude | Altitude | Speed | Heading |
|---|---|---|---|---|---|
| 2026-04-28 17:56 | 56.08393 | 47.32146 | 567 ft | 0 kts | 173° |
| 2026-04-28 18:02 | 56.08364 | 47.32117 | 568 ft | 10 kts | 259° |
| 2026-04-28 18:03 | 56.08384 | 47.31983 | 570 ft | 0 kts | 311° |
| 2026-04-28 18:03 | 56.08370 | 47.31969 | 570 ft | 8 kts | 144° |
| 2026-04-28 18:03 | 56.08370 | 47.32149 | 567 ft | 21 kts | 64° |
| 2026-04-28 18:03 | 56.08484 | 47.32412 | 565 ft | 32 kts | 51° |
| 2026-04-28 18:04 | 56.08608 | 47.32737 | 558 ft | 31 kts | 54° |
| 2026-04-28 18:04 | 56.08728 | 47.33128 | 555 ft | 40 kts | 71° |
| 2026-04-28 18:04 | 56.08817 | 47.33576 | 552 ft | 33 kts | 69° |
| 2026-04-28 18:04 | 56.08890 | 47.33978 | 548 ft | 38 kts | 75° |
| 2026-04-28 18:05 | 56.08968 | 47.34403 | 546 ft | 34 kts | 70° |
| 2026-04-28 18:05 | 56.09016 | 47.34665 | 547 ft | 31 kts | 71° |
| 2026-04-28 18:05 | 56.09110 | 47.35172 | 548 ft | 33 kts | 72° |
| 2026-04-28 18:05 | 56.09190 | 47.35625 | 544 ft | 38 kts | 73° |
| 2026-04-28 18:06 | 56.09264 | 47.36035 | 536 ft | 31 kts | 71° |
| 2026-04-28 18:06 | 56.09314 | 47.36364 | 527 ft | 18 kts | 54° |
| 2026-04-28 18:06 | 56.09332 | 47.36351 | 527 ft | 1 kts | 230° |
| 2026-04-28 18:06 | 56.09320 | 47.36314 | 528 ft | 7 kts | 247° |
| 2026-04-28 18:07 | 56.09253 | 47.35946 | 549 ft | 50 kts | 240° |
| 2026-04-28 18:07 | 56.09130 | 47.35311 | 720 ft | 58 kts | 242° |
| 2026-04-28 18:07 | 56.09010 | 47.34607 | 923 ft | 59 kts | 241° |
| 2026-04-28 18:07 | 56.08868 | 47.33879 | 1103 ft | 64 kts | 240° |
| 2026-04-28 18:08 | 56.08722 | 47.33121 | 1299 ft | 65 kts | 246° |
| 2026-04-28 18:08 | 56.08642 | 47.32337 | 1525 ft | 59 kts | 239° |
| 2026-04-28 18:08 | 56.08375 | 47.31855 | 1625 ft | 64 kts | 198° |
| 2026-04-28 18:08 | 56.07915 | 47.31903 | 1598 ft | 70 kts | 183° |
| 2026-04-28 18:09 | 56.07402 | 47.32068 | 1541 ft | 76 kts | 174° |
| 2026-04-28 18:09 | 56.07016 | 47.32758 | 1600 ft | 84 kts | 129° |
| 2026-04-28 18:09 | 56.06931 | 47.33797 | 1697 ft | 88 kts | 96° |
| 2026-04-28 18:09 | 56.07055 | 47.34887 | 1757 ft | 88 kts | 87° |
| 2026-04-28 18:10 | 56.07154 | 47.35609 | 1752 ft | 93 kts | 86° |
| 2026-04-28 18:10 | 56.07384 | 47.37096 | 1823 ft | 95 kts | 77° |
| 2026-04-28 18:10 | 56.07663 | 47.38186 | 1876 ft | 97 kts | 71° |